createdAt,value
2022-08-29T00:00:23.000Z,123.70
2022-08-29T00:02:54.632Z,123.40
2022-08-29T00:05:26.741Z,123.00
2022-08-29T00:07:54.984Z,122.90
2022-08-29T00:10:22.944Z,122.87
2022-08-29T00:12:50.478Z,122.70
2022-08-29T00:15:18.732Z,123.20
2022-08-29T00:17:45.992Z,123.27
2022-08-29T00:20:19.811Z,123.77
2022-08-29T00:22:48.105Z,123.40
2022-08-29T00:25:16.432Z,123.07
2022-08-29T00:27:47.612Z,122.97
2022-08-29T00:30:21.757Z,123.70
2022-08-29T00:32:49.624Z,123.77
2022-08-29T00:35:28.019Z,123.80
2022-08-29T00:37:56.401Z,123.80
2022-08-29T00:40:32.471Z,123.27
2022-08-29T00:43:00.508Z,123.17
2022-08-29T00:45:29.512Z,123.17
2022-08-29T00:48:10.407Z,123.77
2022-08-29T00:50:59.853Z,123.37
2022-08-29T00:53:35.530Z,123.40
2022-08-29T00:56:04.342Z,123.67
2022-08-29T00:58:40.264Z,122.77
2022-08-29T01:01:07.923Z,123.17
2022-08-29T01:03:36.777Z,123.20
2022-08-29T01:06:13.365Z,123.80
2022-08-29T01:08:42.041Z,123.00
2022-08-29T01:11:32.862Z,123.47
2022-08-29T01:14:01.313Z,123.17
2022-08-29T01:16:30.753Z,123.13
2022-08-29T01:19:09.309Z,123.63
2022-08-29T01:22:07.103Z,123.53
2022-08-29T01:24:50.874Z,123.97
2022-08-29T01:27:27.473Z,123.30
2022-08-29T01:29:55.030Z,123.70
2022-08-29T01:32:26.868Z,123.50
2022-08-29T01:34:54.835Z,124.07
2022-08-29T01:37:22.529Z,123.57
2022-08-29T01:39:50.146Z,123.23
2022-08-29T01:42:22.565Z,123.27
2022-08-29T01:44:59.885Z,123.70
2022-08-29T01:47:35.074Z,123.77
2022-08-29T01:50:11.237Z,123.07
2022-08-29T01:52:39.190Z,123.90
2022-08-29T01:55:07.146Z,123.53
2022-08-29T01:57:37.589Z,123.50
2022-08-29T02:00:10.326Z,124.20
2022-08-29T02:02:38.926Z,123.47
2022-08-29T02:05:08.358Z,124.00
2022-08-29T02:07:35.923Z,123.77
2022-08-29T02:10:04.958Z,123.47
2022-08-29T02:12:32.834Z,123.67
2022-08-29T02:15:00.746Z,123.50
2022-08-29T02:17:29.546Z,123.43
2022-08-29T02:19:56.959Z,123.23
2022-08-29T02:22:24.286Z,123.57
2022-08-29T02:24:51.832Z,123.13
2022-08-29T02:27:19.269Z,124.00
2022-08-29T02:29:46.255Z,123.37
2022-08-29T02:32:15.247Z,123.83
2022-08-29T02:34:47.678Z,124.00
2022-08-29T02:37:16.861Z,123.60
2022-08-29T02:39:44.383Z,123.67
2022-08-29T02:42:11.922Z,123.90
2022-08-29T02:44:39.447Z,123.37
2022-08-29T02:47:08.952Z,123.57
2022-08-29T02:49:36.669Z,123.30
2022-08-29T02:52:06.451Z,123.37
2022-08-29T02:54:34.733Z,124.00
2022-08-29T02:57:02.227Z,123.87
2022-08-29T02:59:29.699Z,123.93
2022-08-29T03:01:57.417Z,124.17
2022-08-29T03:04:24.904Z,123.67
2022-08-29T03:06:52.309Z,124.13
2022-08-29T03:09:19.891Z,123.90
2022-08-29T03:11:47.411Z,124.43
2022-08-29T03:14:14.847Z,122.33
2022-08-29T03:16:43.515Z,124.20
2022-08-29T03:19:11.019Z,123.80
2022-08-29T03:21:38.495Z,123.83
2022-08-29T03:24:06.069Z,124.10
2022-08-29T03:26:33.551Z,124.43
2022-08-29T03:29:00.997Z,123.67
2022-08-29T03:31:28.626Z,123.70
2022-08-29T03:33:56.731Z,123.97
2022-08-29T03:36:26.883Z,124.00
2022-08-29T03:38:54.453Z,124.07
2022-08-29T03:41:26.748Z,123.37
2022-08-29T03:43:56.305Z,124.30
2022-08-29T03:46:24.137Z,124.33
2022-08-29T03:48:52.005Z,123.90
2022-08-29T03:51:20.332Z,124.00
2022-08-29T03:53:47.864Z,124.23
2022-08-29T03:56:18.593Z,123.97
2022-08-29T03:58:52.118Z,123.97
2022-08-29T04:01:24.335Z,123.70
2022-08-29T04:03:52.716Z,123.17
2022-08-29T04:06:22.386Z,124.27
2022-08-29T04:08:51.568Z,124.30
2022-08-29T04:11:23.198Z,123.90
2022-08-29T04:13:51.889Z,124.33
2022-08-29T04:16:25.313Z,123.67
2022-08-29T04:18:57.965Z,123.80
2022-08-29T04:21:25.883Z,123.70
2022-08-29T04:23:54.809Z,123.57
2022-08-29T04:26:38.177Z,123.87
2022-08-29T04:29:12.464Z,123.63
2022-08-29T04:31:42.380Z,123.33
2022-08-29T04:34:12.777Z,123.97
2022-08-29T04:36:42.641Z,123.70
2022-08-29T04:39:10.459Z,123.60
2022-08-29T04:41:39.162Z,123.57
2022-08-29T04:44:08.173Z,123.57
2022-08-29T04:46:35.945Z,124.00
2022-08-29T04:49:04.613Z,124.20
2022-08-29T04:51:35.561Z,123.67
2022-08-29T04:54:04.794Z,124.10
2022-08-29T04:56:32.341Z,123.97
2022-08-29T04:59:00.064Z,123.70
2022-08-29T05:01:27.707Z,123.87
2022-08-29T05:03:56.412Z,123.73
2022-08-29T05:06:25.557Z,123.60
2022-08-29T05:08:59.225Z,123.77
2022-08-29T05:11:31.091Z,123.43
2022-08-29T05:14:00.605Z,123.80
2022-08-29T05:16:29.974Z,123.40
2022-08-29T05:18:59.625Z,123.70
2022-08-29T05:21:35.860Z,123.30
2022-08-29T05:24:12.213Z,123.90
2022-08-29T05:26:45.263Z,123.60
2022-08-29T05:29:13.285Z,123.17
2022-08-29T05:31:45.376Z,123.07
2022-08-29T05:34:32.562Z,123.77
2022-08-29T05:37:04.286Z,123.50
2022-08-29T05:39:31.505Z,122.40
2022-08-29T05:41:59.649Z,122.77
2022-08-29T05:44:34.976Z,122.77
2022-08-29T05:47:15.170Z,123.13
2022-08-29T05:49:46.142Z,122.77
2022-08-29T05:52:18.064Z,122.70
2022-08-29T05:54:50.527Z,122.53
2022-08-29T05:57:25.790Z,122.10
2022-08-29T05:59:57.299Z,122.50
2022-08-29T06:02:27.959Z,122.57
2022-08-29T06:04:59.059Z,122.30
2022-08-29T06:07:32.294Z,122.37
2022-08-29T06:10:08.485Z,121.60
2022-08-29T06:12:40.203Z,121.17
2022-08-29T06:15:14.292Z,121.50
2022-08-29T06:17:48.707Z,121.00
2022-08-29T06:20:20.314Z,121.10
2022-08-29T06:22:52.459Z,121.67
2022-08-29T06:25:38.615Z,121.00
2022-08-29T06:28:11.798Z,120.70
2022-08-29T06:30:46.435Z,120.57
2022-08-29T06:33:18.784Z,120.50
2022-08-29T06:35:50.856Z,120.63
2022-08-29T06:38:22.337Z,120.20
2022-08-29T06:40:54.039Z,120.33
2022-08-29T06:43:25.615Z,120.57
2022-08-29T06:45:57.459Z,120.67
2022-08-29T06:48:29.709Z,120.03
2022-08-29T06:51:05.219Z,120.30
2022-08-29T06:53:37.471Z,119.90
2022-08-29T06:56:11.997Z,120.00
2022-08-29T06:58:46.439Z,120.40
2022-08-29T07:01:21.706Z,120.20
2022-08-29T07:03:57.448Z,121.10
2022-08-29T07:06:31.267Z,119.90
2022-08-29T07:09:03.537Z,119.73
2022-08-29T07:11:40.931Z,119.10
2022-08-29T07:14:14.192Z,118.87
2022-08-29T07:16:46.544Z,118.47
2022-08-29T07:19:21.270Z,118.60
2022-08-29T07:21:57.986Z,117.90
2022-08-29T07:24:30.580Z,117.50
2022-08-29T07:27:02.478Z,116.37
2022-08-29T07:29:32.036Z,116.03
2022-08-29T07:32:03.620Z,117.27
2022-08-29T07:34:34.877Z,116.70
2022-08-29T07:37:07.204Z,116.50
2022-08-29T07:39:39.472Z,114.97
2022-08-29T07:42:11.556Z,115.93
2022-08-29T07:44:43.337Z,114.50
2022-08-29T07:47:14.697Z,114.80
2022-08-29T07:49:46.950Z,115.17
2022-08-29T07:52:18.524Z,116.40
2022-08-29T07:54:49.462Z,113.57
2022-08-29T07:57:21.860Z,112.40
2022-08-29T07:59:56.702Z,112.20
2022-08-29T08:04:00.009Z,111.50
2022-08-29T08:06:29.789Z,111.17
2022-08-29T08:09:01.589Z,111.37
2022-08-29T08:11:34.457Z,111.30
2022-08-29T08:14:08.140Z,111.40
2022-08-29T08:16:37.726Z,110.00
2022-08-29T08:19:10.706Z,110.87
2022-08-29T08:21:44.377Z,110.57
2022-08-29T08:24:22.001Z,109.93
2022-08-29T08:26:53.767Z,109.70
2022-08-29T08:29:25.152Z,109.20
2022-08-29T08:31:57.254Z,108.57
2022-08-29T08:34:30.718Z,108.47
2022-08-29T08:36:59.053Z,108.50
2022-08-29T08:39:28.429Z,108.37
2022-08-29T08:42:15.162Z,107.73
2022-08-29T08:44:59.627Z,107.73
2022-08-29T08:47:42.147Z,107.80
2022-08-29T08:50:40.582Z,107.27
2022-08-29T08:53:50.618Z,105.80
2022-08-29T08:56:48.314Z,105.73
2022-08-29T08:59:35.840Z,107.30
2022-08-29T09:03:00.250Z,106.47
2022-08-29T09:05:49.339Z,106.77
2022-08-29T09:09:32.067Z,106.37
2022-08-29T09:12:31.532Z,105.47
2022-08-29T09:15:13.407Z,104.80
2022-08-29T09:17:59.367Z,104.50
2022-08-29T09:20:37.851Z,103.80
2022-08-29T09:23:46.495Z,103.47
2022-08-29T09:26:25.842Z,103.37
2022-08-29T09:28:58.435Z,103.77
2022-08-29T09:31:36.122Z,103.77
2022-08-29T09:34:17.004Z,104.97
2022-08-29T09:36:54.923Z,104.67
2022-08-29T09:39:34.022Z,104.00
2022-08-29T09:42:24.029Z,102.97
2022-08-29T09:44:59.892Z,102.90
2022-08-29T09:47:35.467Z,102.57
2022-08-29T09:50:35.224Z,103.10
2022-08-29T09:53:23.779Z,102.70
2022-08-29T09:55:57.569Z,104.17
2022-08-29T09:58:39.962Z,106.00
2022-08-29T10:01:36.793Z,107.87
2022-08-29T10:04:11.047Z,108.47
2022-08-29T10:06:48.376Z,107.80
2022-08-29T10:09:31.812Z,107.40
2022-08-29T10:12:59.892Z,106.67
2022-08-29T10:15:50.388Z,105.63
2022-08-29T10:19:07.375Z,104.77
2022-08-29T10:22:29.848Z,103.87
2022-08-29T10:25:41.828Z,103.40
2022-08-29T10:29:02.057Z,102.53
2022-08-29T10:32:16.392Z,103.57
2022-08-29T10:35:32.081Z,105.20
2022-08-29T10:39:11.920Z,104.87
2022-08-29T10:42:11.180Z,107.70
2022-08-29T10:44:52.283Z,108.67
2022-08-29T10:47:39.676Z,110.60
2022-08-29T10:50:43.760Z,109.97
2022-08-29T10:53:21.745Z,110.07
2022-08-29T10:56:08.597Z,108.50
2022-08-29T10:58:48.817Z,107.17
2022-08-29T11:01:37.485Z,105.97
2022-08-29T11:04:23.297Z,105.17
2022-08-29T11:07:36.225Z,106.33
2022-08-29T11:10:15.733Z,106.97
2022-08-29T11:13:12.430Z,106.67
2022-08-29T11:16:27.995Z,105.93
2022-08-29T11:19:22.465Z,105.00
2022-08-29T11:22:22.917Z,104.00
2022-08-29T11:25:19.265Z,102.67
2022-08-29T11:28:18.289Z,103.57
2022-08-29T11:31:04.077Z,103.47
2022-08-29T11:33:52.123Z,105.10
2022-08-29T11:37:32.294Z,104.00
2022-08-29T11:43:33.002Z,104.50
2022-08-29T11:46:11.754Z,102.57
2022-08-29T11:48:59.270Z,104.33
2022-08-29T11:51:41.190Z,103.57
2022-08-29T11:54:30.106Z,103.87
2022-08-29T11:57:07.018Z,103.57
2022-08-29T11:59:50.406Z,102.33
2022-08-29T12:02:33.515Z,101.67
2022-08-29T12:05:55.070Z,101.17
2022-08-29T12:09:23.270Z,100.50
2022-08-29T12:12:06.862Z,100.10
2022-08-29T12:14:53.251Z,101.17
2022-08-29T12:17:31.849Z,102.17
2022-08-29T12:20:21.823Z,103.17
2022-08-29T12:23:08.587Z,106.20
2022-08-29T12:26:09.868Z,107.97
2022-08-29T12:29:01.411Z,108.57
2022-08-29T12:32:18.224Z,109.30
2022-08-29T12:35:22.751Z,110.10
2022-08-29T12:38:32.708Z,109.77
2022-08-29T12:41:22.695Z,108.77
2022-08-29T12:44:01.349Z,108.17
2022-08-29T12:46:42.110Z,106.67
2022-08-29T12:49:52.203Z,105.37
2022-08-29T12:52:35.923Z,103.87
2022-08-29T12:55:28.670Z,104.20
2022-08-29T12:58:00.313Z,103.67
2022-08-29T13:00:35.825Z,103.67
2022-08-29T13:03:21.921Z,104.60
2022-08-29T13:05:49.963Z,104.30
2022-08-29T13:08:33.995Z,102.87
2022-08-29T13:11:08.428Z,102.60
2022-08-29T13:13:37.012Z,102.50
2022-08-29T13:16:23.110Z,101.10
2022-08-29T13:19:09.609Z,101.63
2022-08-29T13:21:37.691Z,101.90
2022-08-29T13:24:16.854Z,101.27
2022-08-29T13:27:05.963Z,102.10
2022-08-29T13:29:39.451Z,102.20
2022-08-29T13:32:23.542Z,101.60
2022-08-29T13:35:18.752Z,102.23
2022-08-29T13:38:20.371Z,101.30
2022-08-29T13:40:55.078Z,100.27
2022-08-29T13:43:38.444Z,100.60
2022-08-29T13:46:14.813Z,100.60
2022-08-29T13:48:44.892Z,100.97
2022-08-29T13:51:12.752Z,100.07
2022-08-29T13:53:40.216Z,100.67
2022-08-29T13:56:32.521Z,100.13
2022-08-29T13:59:00.744Z,100.87
2022-08-29T14:01:30.161Z,99.87
2022-08-29T14:04:03.608Z,101.40
2022-08-29T14:06:38.329Z,101.83
2022-08-29T14:09:06.441Z,100.27
2022-08-29T14:11:33.601Z,101.10
2022-08-29T14:14:01.018Z,101.23
2022-08-29T14:16:28.072Z,102.20
2022-08-29T14:18:55.557Z,103.10
2022-08-29T14:21:23.554Z,103.50
2022-08-29T14:23:51.370Z,103.90
2022-08-29T14:26:18.390Z,104.10
2022-08-29T14:28:48.076Z,104.30
2022-08-29T14:31:16.011Z,103.67
2022-08-29T14:33:43.569Z,103.57
2022-08-29T14:36:12.845Z,103.87
2022-08-29T14:38:40.372Z,103.30
2022-08-29T14:41:08.046Z,103.30
2022-08-29T14:43:39.721Z,102.90
2022-08-29T14:46:07.708Z,102.47
2022-08-29T14:48:36.013Z,103.57
2022-08-29T14:51:03.829Z,103.27
2022-08-29T14:53:34.949Z,103.50
2022-08-29T14:56:06.043Z,104.00
2022-08-29T14:58:33.578Z,103.70
2022-08-29T15:01:01.170Z,103.63
2022-08-29T15:03:28.622Z,103.90
2022-08-29T15:05:56.101Z,103.17
2022-08-29T15:08:23.217Z,103.23
2022-08-29T15:10:50.678Z,104.00
2022-08-29T15:13:18.189Z,103.00
2022-08-29T15:15:45.611Z,103.67
2022-08-29T15:18:30.571Z,104.57
2022-08-29T15:21:02.286Z,104.27
2022-08-29T15:23:29.707Z,104.40
2022-08-29T15:25:57.350Z,104.73
2022-08-29T15:28:24.758Z,105.50
2022-08-29T15:30:51.999Z,112.80
2022-08-29T15:33:19.462Z,109.17
2022-08-29T15:35:46.991Z,106.07
2022-08-29T15:38:14.636Z,106.17
2022-08-29T15:40:42.361Z,106.80
2022-08-29T15:43:10.565Z,108.10
2022-08-29T15:45:38.063Z,108.13
2022-08-29T15:48:06.151Z,109.77
2022-08-29T15:50:39.199Z,109.10
2022-08-29T15:53:06.763Z,109.37
2022-08-29T15:55:34.302Z,110.20
2022-08-29T15:58:01.779Z,109.17
2022-08-29T16:00:30.158Z,109.20
2022-08-29T16:03:02.608Z,108.97
2022-08-29T16:05:32.587Z,110.97
2022-08-29T16:08:00.909Z,113.63
2022-08-29T16:10:29.309Z,113.47
2022-08-29T16:12:56.856Z,113.10
2022-08-29T16:15:24.457Z,113.40
2022-08-29T16:17:53.499Z,114.87
2022-08-29T16:20:20.689Z,115.17
2022-08-29T16:22:48.331Z,114.73
2022-08-29T16:25:16.447Z,115.60
2022-08-29T16:27:43.991Z,116.60
2022-08-29T16:30:12.780Z,116.77
2022-08-29T16:32:40.395Z,117.90
2022-08-29T16:35:09.017Z,117.53
2022-08-29T16:37:37.404Z,117.13
2022-08-29T16:40:07.640Z,116.20
2022-08-29T16:42:39.108Z,116.43
2022-08-29T16:45:09.699Z,117.00
2022-08-29T16:47:37.783Z,117.00
2022-08-29T16:50:07.622Z,116.77
2022-08-29T16:52:35.197Z,117.33
2022-08-29T16:55:04.465Z,117.27
2022-08-29T16:57:31.772Z,117.07
2022-08-29T16:59:59.272Z,117.00
2022-08-29T17:02:26.843Z,116.80
2022-08-29T17:04:54.260Z,117.50
2022-08-29T17:07:21.781Z,118.60
2022-08-29T17:09:49.232Z,117.77
2022-08-29T17:12:16.841Z,118.07
2022-08-29T17:14:44.243Z,118.57
2022-08-29T17:17:11.871Z,118.47
2022-08-29T17:19:39.489Z,117.87
2022-08-29T17:22:07.048Z,117.27
2022-08-29T17:24:34.546Z,117.80
2022-08-29T17:27:02.629Z,117.60
2022-08-29T17:29:30.081Z,118.07
2022-08-29T17:31:58.232Z,118.20
2022-08-29T17:34:25.713Z,118.13
2022-08-29T17:36:53.161Z,117.10
2022-08-29T17:39:21.418Z,118.10
2022-08-29T17:41:52.040Z,118.57
2022-08-29T17:44:19.419Z,117.77
2022-08-29T17:46:47.173Z,116.87
2022-08-29T17:49:14.781Z,118.43
2022-08-29T17:51:42.529Z,119.37
2022-08-29T17:54:14.896Z,119.27
2022-08-29T17:56:47.721Z,119.70
2022-08-29T17:59:17.233Z,120.20
2022-08-29T18:01:46.429Z,120.63
2022-08-29T18:04:14.230Z,120.63
2022-08-29T18:06:42.531Z,120.77
2022-08-29T18:09:16.197Z,120.50
2022-08-29T18:11:53.781Z,120.47
2022-08-29T18:14:25.886Z,120.20
2022-08-29T18:16:54.497Z,120.90
2022-08-29T18:19:23.119Z,120.17
2022-08-29T18:21:52.952Z,120.10
2022-08-29T18:24:20.857Z,120.23
2022-08-29T18:26:48.658Z,120.77
2022-08-29T18:29:16.685Z,121.23
2022-08-29T18:31:44.091Z,121.20
2022-08-29T18:34:12.958Z,121.30
2022-08-29T18:36:43.604Z,121.00
2022-08-29T18:39:11.631Z,121.50
2022-08-29T18:41:47.415Z,121.50
2022-08-29T18:44:15.018Z,121.67
2022-08-29T18:46:47.845Z,121.27
2022-08-29T18:49:17.407Z,121.00
2022-08-29T18:51:45.180Z,121.97
2022-08-29T18:54:16.217Z,121.23
2022-08-29T18:56:46.795Z,121.77
2022-08-29T18:59:14.207Z,122.47
2022-08-29T19:01:42.991Z,122.50
2022-08-29T19:04:10.595Z,123.47
2022-08-29T19:06:38.043Z,122.97
2022-08-29T19:09:05.547Z,123.20
2022-08-29T19:11:33.023Z,123.70
2022-08-29T19:14:00.505Z,123.17
2022-08-29T19:16:28.083Z,123.60
2022-08-29T19:18:55.540Z,123.00
2022-08-29T19:21:23.963Z,122.37
2022-08-29T19:23:54.719Z,122.80
2022-08-29T19:26:37.864Z,122.90
2022-08-29T19:29:13.195Z,123.00
2022-08-29T19:31:44.665Z,123.00
2022-08-29T19:34:13.041Z,122.50
2022-08-29T19:36:42.833Z,122.90
2022-08-29T19:39:15.617Z,122.67
2022-08-29T19:41:43.047Z,121.87
2022-08-29T19:44:10.516Z,122.90
2022-08-29T19:46:39.021Z,124.03
2022-08-29T19:51:40.928Z,127.10
2022-08-29T19:54:08.615Z,126.30
2022-08-29T19:56:40.091Z,125.20
2022-08-29T19:59:14.356Z,123.93
2022-08-29T20:01:44.846Z,124.40
2022-08-29T20:04:12.967Z,123.60
2022-08-29T20:06:40.584Z,123.93
2022-08-29T20:09:11.661Z,123.70
2022-08-29T20:11:43.938Z,123.47
2022-08-29T20:14:14.199Z,123.17
2022-08-29T20:16:42.058Z,123.17
2022-08-29T20:19:11.828Z,123.80
2022-08-29T20:21:40.542Z,123.60
2022-08-29T20:24:07.973Z,123.80
2022-08-29T20:26:37.500Z,122.87
2022-08-29T20:29:09.009Z,123.30
2022-08-29T20:31:37.291Z,123.50
2022-08-29T20:34:05.076Z,122.97
2022-08-29T20:36:50.900Z,123.60
2022-08-29T20:39:20.404Z,123.33
2022-08-29T20:41:50.153Z,123.53
2022-08-29T20:44:30.341Z,123.63
2022-08-29T20:47:01.203Z,123.80
2022-08-29T20:49:28.676Z,122.87
2022-08-29T20:51:56.205Z,123.83
2022-08-29T20:54:24.806Z,123.80
2022-08-29T20:56:53.399Z,122.97
2022-08-29T20:59:24.675Z,123.40
2022-08-29T21:01:55.261Z,123.37
2022-08-29T21:04:41.006Z,124.00
2022-08-29T21:07:11.959Z,124.00
2022-08-29T21:09:43.060Z,123.23
2022-08-29T21:12:13.134Z,124.03
2022-08-29T21:14:40.850Z,124.07
2022-08-29T21:17:13.459Z,123.87
2022-08-29T21:19:41.494Z,123.37
2022-08-29T21:22:12.341Z,124.17
2022-08-29T21:24:40.117Z,123.30
2022-08-29T21:27:07.686Z,123.90
2022-08-29T21:29:35.758Z,123.60
2022-08-29T21:32:03.642Z,123.37
2022-08-29T21:34:31.166Z,124.07
2022-08-29T21:36:58.621Z,123.47
2022-08-29T21:39:28.444Z,123.90
2022-08-29T21:41:57.598Z,123.67
2022-08-29T21:44:25.122Z,123.60
2022-08-29T21:46:53.753Z,123.17
2022-08-29T21:49:21.764Z,123.03
2022-08-29T21:51:49.672Z,122.80
2022-08-29T21:54:18.230Z,122.93
2022-08-29T21:56:46.958Z,123.00
2022-08-29T21:59:17.552Z,122.37
2022-08-29T22:01:46.263Z,122.83
2022-08-29T22:04:18.853Z,122.40
2022-08-29T22:06:57.545Z,122.50
2022-08-29T22:09:25.588Z,123.00
2022-08-29T22:11:53.198Z,122.57
2022-08-29T22:14:20.950Z,123.37
2022-08-29T22:16:48.459Z,123.37
2022-08-29T22:19:17.570Z,123.17
2022-08-29T22:21:53.772Z,122.70
2022-08-29T22:24:21.307Z,123.00
2022-08-29T22:26:49.190Z,122.17
2022-08-29T22:29:17.003Z,122.80
2022-08-29T22:31:45.437Z,123.17
2022-08-29T22:34:15.988Z,123.07
2022-08-29T22:36:43.505Z,122.47
2022-08-29T22:39:11.256Z,122.70
2022-08-29T22:41:38.523Z,123.00
2022-08-29T22:44:52.570Z,122.67
2022-08-29T22:46:54.634Z,122.80
2022-08-29T22:49:22.236Z,122.67
2022-08-29T22:51:50.437Z,122.47
2022-08-29T22:54:36.626Z,123.30
2022-08-29T22:57:10.343Z,122.57
2022-08-29T22:59:39.571Z,123.17
2022-08-29T23:02:08.608Z,122.80
2022-08-29T23:04:37.700Z,122.90
2022-08-29T23:07:07.183Z,122.73
2022-08-29T23:09:35.820Z,122.73
2022-08-29T23:12:05.644Z,122.93
2022-08-29T23:14:35.821Z,122.40
2022-08-29T23:17:08.180Z,122.27
2022-08-29T23:19:37.035Z,122.97
2022-08-29T23:22:10.085Z,123.03
2022-08-29T23:24:40.576Z,122.73
2022-08-29T23:27:19.164Z,123.20
2022-08-29T23:29:50.315Z,122.73
2022-08-29T23:32:18.116Z,123.20
2022-08-29T23:34:45.540Z,123.03
2022-08-29T23:37:13.138Z,123.27
2022-08-29T23:39:40.625Z,123.30
2022-08-29T23:42:08.160Z,122.97
2022-08-29T23:44:35.727Z,122.87
2022-08-29T23:47:03.643Z,123.43
2022-08-29T23:49:31.160Z,123.07
2022-08-29T23:51:59.236Z,123.20
2022-08-29T23:54:26.532Z,123.60
2022-08-29T23:56:53.969Z,123.70
2022-08-29T23:59:39.981Z,123.83
